Killeen, Texas
Current Conditions -  °F | °C
As of 10:56 PM on Wednesday 22 Oct 2014 (Local Time) from KHLR Reporting Station
Few Clouds Few Clouds  
Wind Chill: 72°   Ceiling: Unl
Heat Index: 72°   Visibility: 10mi
Dew Point: 60°   Wind: 3mph
Humidity: 66%   Direction: 100°E
Pressure: 30.1"   Gusts: NA
Location:  31.12°N, 97.73°W
Report Text: KHLR 230356Z 10003KT 10SM FEW120 22/16 A3010 RMK AO2 SLPNO T02220156 $
Loading
Personal Weather Stations






























Interactive Weather Map New forecast layout! Learn more

10-Day Weather Forecast

Advertisements
Track Severe Weather on mobile